createdAt,value
2018-10-11T00:01:32.899Z,30.30
2018-10-11T00:04:01.711Z,27.37
2018-10-11T00:06:30.579Z,29.57
2018-10-11T00:08:59.423Z,27.50
2018-10-11T00:11:28.275Z,28.87
2018-10-11T00:13:57.098Z,27.70
2018-10-11T00:16:25.909Z,27.60
2018-10-11T00:18:55.036Z,29.27
2018-10-11T00:21:23.826Z,27.10
2018-10-11T00:23:52.718Z,27.90
2018-10-11T00:26:21.587Z,28.23
2018-10-11T00:28:50.401Z,29.77
2018-10-11T00:31:19.606Z,29.47
2018-10-11T00:33:48.450Z,30.10
2018-10-11T00:36:17.298Z,29.37
2018-10-11T00:38:46.127Z,30.80
2018-10-11T00:41:15.310Z,28.97
2018-10-11T00:43:44.187Z,28.73
2018-10-11T00:46:13.010Z,27.40
2018-10-11T00:48:41.857Z,28.70
2018-10-11T00:51:10.677Z,30.53
2018-10-11T00:53:39.479Z,27.87
2018-10-11T00:56:08.338Z,29.73
2018-10-11T00:58:37.174Z,30.83
2018-10-11T01:01:06.051Z,27.73
2018-10-11T01:03:35.411Z,29.67
2018-10-11T01:06:04.179Z,28.83
2018-10-11T01:08:33.010Z,30.13
2018-10-11T01:11:01.844Z,28.77
2018-10-11T01:13:30.656Z,29.70
2018-10-11T01:15:59.475Z,29.30
2018-10-11T01:18:28.291Z,28.70
2018-10-11T01:20:57.130Z,28.73
2018-10-11T01:23:25.985Z,29.00
2018-10-11T01:25:55.493Z,29.57
2018-10-11T01:28:24.921Z,29.50
2018-10-11T01:30:58.937Z,28.33
2018-10-11T01:33:28.107Z,28.50
2018-10-11T01:35:56.913Z,28.77
2018-10-11T01:38:25.801Z,28.97
2018-10-11T01:40:54.868Z,28.53
2018-10-11T01:43:23.677Z,29.50
2018-10-11T01:45:52.765Z,28.43
2018-10-11T01:48:21.562Z,27.30
2018-10-11T01:50:50.385Z,29.17
2018-10-11T01:53:19.238Z,29.03
2018-10-11T01:55:48.074Z,29.00
2018-10-11T01:58:16.894Z,27.67
2018-10-11T02:00:45.697Z,26.03
2018-10-11T02:03:14.511Z,27.37
2018-10-11T02:05:43.333Z,28.93
2018-10-11T02:08:12.267Z,28.93
2018-10-11T02:10:41.090Z,27.50
2018-10-11T02:13:09.954Z,28.37
2018-10-11T02:15:38.796Z,29.70
2018-10-11T02:18:07.605Z,28.30
2018-10-11T02:20:36.447Z,29.37
2018-10-11T02:23:05.277Z,29.00
2018-10-11T02:25:34.111Z,31.13
2018-10-11T02:28:02.927Z,30.20
2018-10-11T02:30:32.183Z,30.57
2018-10-11T02:33:01.086Z,28.20
2018-10-11T02:35:30.498Z,30.13
2018-10-11T02:37:59.306Z,28.83
2018-10-11T02:40:28.377Z,31.10
2018-10-11T02:42:57.178Z,30.17
2018-10-11T02:45:26.011Z,27.80
2018-10-11T02:47:54.813Z,29.73
2018-10-11T02:50:23.634Z,30.07
2018-10-11T02:52:52.820Z,30.40
2018-10-11T02:55:24.485Z,30.00
2018-10-11T02:58:10.681Z,30.33
2018-10-11T03:00:39.494Z,29.48
2018-10-11T03:03:12.199Z,27.00
2018-10-11T03:05:43.409Z,28.87
2018-10-11T03:08:16.737Z,29.27
2018-10-11T03:10:46.024Z,28.77
2018-10-11T03:13:15.087Z,28.47
2018-10-11T03:15:44.399Z,29.50
2018-10-11T03:18:13.962Z,27.27
2018-10-11T03:20:43.909Z,27.47
2018-10-11T03:23:13.457Z,26.40
2018-10-11T03:25:43.539Z,27.63
2018-10-11T03:28:13.770Z,27.77
2018-10-11T03:30:43.421Z,29.40
2018-10-11T03:33:13.149Z,28.77
2018-10-11T03:35:43.499Z,27.93
2018-10-11T03:38:12.490Z,28.57
2018-10-11T03:40:41.344Z,26.30
2018-10-11T03:43:10.131Z,30.57
2018-10-11T03:45:38.975Z,26.90
2018-10-11T03:48:07.792Z,28.23
2018-10-11T03:50:36.605Z,28.37
2018-10-11T03:53:05.798Z,28.20
2018-10-11T03:55:34.633Z,28.27
2018-10-11T03:58:03.443Z,25.90
2018-10-11T04:00:32.306Z,28.53
2018-10-11T04:03:01.105Z,29.23
2018-10-11T04:05:29.944Z,27.73
2018-10-11T04:07:58.824Z,28.80
2018-10-11T04:10:27.652Z,28.73
2018-10-11T04:12:56.462Z,27.70
2018-10-11T04:15:25.676Z,28.10
2018-10-11T04:17:54.458Z,28.97
2018-10-11T04:20:23.310Z,28.73
2018-10-11T04:22:52.152Z,29.30
2018-10-11T04:25:20.994Z,28.73
2018-10-11T04:27:49.796Z,29.73
2018-10-11T04:30:18.610Z,31.07
2018-10-11T04:32:47.435Z,27.47
2018-10-11T04:35:16.265Z,29.23
2018-10-11T04:37:45.959Z,29.87
2018-10-11T04:40:14.889Z,28.90
2018-10-11T04:42:43.746Z,28.57
2018-10-11T04:45:12.570Z,30.03
2018-10-11T04:47:41.423Z,27.57
2018-10-11T04:50:10.279Z,28.07
2018-10-11T04:52:39.084Z,29.57
2018-10-11T04:55:09.089Z,28.43
2018-10-11T04:57:37.886Z,29.97
2018-10-11T05:00:09.117Z,29.10
2018-10-11T05:02:37.926Z,28.40
2018-10-11T05:10:04.571Z,26.77
2018-10-11T05:12:33.387Z,27.90
2018-10-11T05:15:02.200Z,28.77
2018-10-11T05:17:31.570Z,28.93
2018-10-11T05:20:00.336Z,29.33
2018-10-11T05:22:29.163Z,29.63
2018-10-11T05:24:57.995Z,28.80
2018-10-11T05:27:26.833Z,30.67
2018-10-11T05:29:55.664Z,27.90
2018-10-11T05:32:24.561Z,28.27
2018-10-11T05:34:53.362Z,27.13
2018-10-11T05:37:22.208Z,28.93
2018-10-11T05:39:52.120Z,36.90
2018-10-11T05:42:20.926Z,28.87
2018-10-11T05:44:49.770Z,28.20
2018-10-11T05:47:18.627Z,29.20
2018-10-11T05:49:47.466Z,28.67
2018-10-11T05:52:16.285Z,29.27
2018-10-11T05:54:45.093Z,28.33
2018-10-11T05:57:13.909Z,29.07
2018-10-11T05:59:42.705Z,26.53
2018-10-11T06:02:11.843Z,28.33
2018-10-11T06:04:40.658Z,28.40
2018-10-11T06:07:09.481Z,32.87
2018-10-11T06:09:38.296Z,29.23
2018-10-11T06:12:07.167Z,30.03
2018-10-11T06:14:35.921Z,27.77
2018-10-11T06:17:04.752Z,27.53
2018-10-11T06:19:33.575Z,27.77
2018-10-11T06:22:02.419Z,28.53
2018-10-11T06:24:31.466Z,27.63
2018-10-11T06:27:00.295Z,27.60
2018-10-11T06:29:29.141Z,27.43
2018-10-11T06:31:58.078Z,28.53
2018-10-11T06:34:26.911Z,28.07
2018-10-11T06:36:55.864Z,27.27
2018-10-11T06:39:24.725Z,28.87
2018-10-11T06:41:53.934Z,28.57
2018-10-11T06:44:22.729Z,29.67
2018-10-11T06:46:51.846Z,28.37
2018-10-11T06:49:20.667Z,27.93
2018-10-11T06:51:49.535Z,26.83
2018-10-11T06:54:18.403Z,27.40
2018-10-11T06:56:47.191Z,26.40
2018-10-11T06:59:16.098Z,28.83
2018-10-11T07:01:44.984Z,27.77
2018-10-11T07:04:13.835Z,27.00
2018-10-11T07:06:42.682Z,27.13
2018-10-11T07:09:12.007Z,25.90
2018-10-11T07:11:40.818Z,24.20
2018-10-11T07:14:09.622Z,25.50
2018-10-11T07:16:38.470Z,26.20
2018-10-11T07:19:07.329Z,27.77
2018-10-11T07:21:36.142Z,27.77
2018-10-11T07:24:05.058Z,26.93
2018-10-11T07:26:34.147Z,25.97
2018-10-11T07:29:02.980Z,25.80
2018-10-11T07:31:32.345Z,26.93
2018-10-11T07:34:01.231Z,25.67
2018-10-11T07:36:30.076Z,24.63
2018-10-11T07:38:58.927Z,26.50
2018-10-11T07:41:27.808Z,25.70
2018-10-11T07:43:57.166Z,24.30
2018-10-11T07:46:26.073Z,23.50
2018-10-11T07:48:54.886Z,24.47
2018-10-11T07:51:30.432Z,23.90
2018-10-11T07:54:01.359Z,24.23
2018-10-11T07:56:31.500Z,24.33
2018-10-11T07:59:00.889Z,24.27
2018-10-11T08:01:30.443Z,23.97
2018-10-11T08:03:59.518Z,22.77
2018-10-11T08:06:28.320Z,23.67
2018-10-11T08:08:57.129Z,23.77
2018-10-11T08:11:27.002Z,22.07
2018-10-11T08:13:55.767Z,22.63
2018-10-11T08:16:24.682Z,22.93
2018-10-11T08:18:53.576Z,21.67
2018-10-11T08:21:22.272Z,22.93
2018-10-11T08:23:51.084Z,23.73
2018-10-11T08:26:20.183Z,22.60
2018-10-11T08:28:48.715Z,23.67
2018-10-11T08:31:17.630Z,22.77
2018-10-11T08:33:46.883Z,22.37
2018-10-11T08:36:15.706Z,21.25
2018-10-11T08:38:44.509Z,21.23
2018-10-11T08:41:13.306Z,22.37
2018-10-11T08:43:42.144Z,20.50
2018-10-11T08:46:11.431Z,23.00
2018-10-11T08:48:40.239Z,21.37
2018-10-11T08:51:09.077Z,22.43
2018-10-11T08:53:37.957Z,21.97
2018-10-11T08:56:07.241Z,21.63
2018-10-11T08:58:35.992Z,21.70
2018-10-11T09:01:04.816Z,22.43
2018-10-11T09:03:33.784Z,20.97
2018-10-11T09:06:02.500Z,20.63
2018-10-11T09:08:31.321Z,21.20
2018-10-11T09:11:00.178Z,21.07
2018-10-11T09:13:28.950Z,22.13
2018-10-11T09:15:57.771Z,22.07
2018-10-11T09:18:27.034Z,21.80
2018-10-11T09:20:55.852Z,20.53
2018-10-11T09:23:25.020Z,21.53
2018-10-11T09:25:53.750Z,21.17
2018-10-11T09:28:22.556Z,20.63
2018-10-11T09:30:51.354Z,20.70
2018-10-11T09:33:20.185Z,20.27
2018-10-11T09:35:49.017Z,20.63
2018-10-11T09:38:17.836Z,20.47
2018-10-11T09:40:46.930Z,19.63
2018-10-11T09:43:15.812Z,19.13
2018-10-11T09:45:44.582Z,19.87
2018-10-11T09:48:13.850Z,19.67
2018-10-11T09:50:42.666Z,18.83
2018-10-11T09:53:11.498Z,19.43
2018-10-11T09:55:40.354Z,20.77
2018-10-11T09:58:09.182Z,18.63
2018-10-11T10:01:42.067Z,19.53
2018-10-11T10:04:10.929Z,17.73
2018-10-11T10:06:39.734Z,16.70
2018-10-11T10:09:08.691Z,17.00
2018-10-11T10:11:37.543Z,20.27
2018-10-11T10:14:06.346Z,16.73
2018-10-11T10:16:35.192Z,17.00
2018-10-11T10:19:04.027Z,21.80
2018-10-11T10:21:32.848Z,18.40
2018-10-11T10:24:02.002Z,18.40
2018-10-11T10:26:30.835Z,18.83
2018-10-11T10:28:59.672Z,17.07
2018-10-11T10:31:28.645Z,19.40
2018-10-11T10:33:57.507Z,16.00
2018-10-11T10:36:26.274Z,16.70
2018-10-11T10:38:55.137Z,18.00
2018-10-11T10:41:24.012Z,17.87
2018-10-11T10:43:52.848Z,18.80
2018-10-11T10:46:22.121Z,17.13
2018-10-11T10:48:51.493Z,17.77
2018-10-11T10:51:20.284Z,17.70
2018-10-11T10:53:49.138Z,17.50
2018-10-11T10:56:17.973Z,18.47
2018-10-11T10:58:46.837Z,18.83
2018-10-11T11:01:15.642Z,18.90
2018-10-11T11:03:44.457Z,17.77
2018-10-11T11:06:13.280Z,17.23
2018-10-11T11:08:42.443Z,19.60
2018-10-11T11:11:11.279Z,18.30
2018-10-11T11:13:40.081Z,19.27
2018-10-11T11:16:09.750Z,17.40
2018-10-11T11:18:38.562Z,18.67
2018-10-11T11:21:08.233Z,17.77
2018-10-11T11:23:37.154Z,17.10
2018-10-11T11:26:06.012Z,17.20
2018-10-11T11:28:34.805Z,16.77
2018-10-11T11:31:04.244Z,18.13
2018-10-11T11:33:33.023Z,17.53
2018-10-11T11:36:01.865Z,16.17
2018-10-11T11:38:30.675Z,16.90
2018-10-11T11:40:59.495Z,18.53
2018-10-11T11:43:28.306Z,16.80
2018-10-11T11:45:57.184Z,16.13
2018-10-11T11:48:25.970Z,16.63
2018-10-11T11:50:55.262Z,18.50
2018-10-11T11:53:24.339Z,15.67
2018-10-11T11:55:53.155Z,16.03
2018-10-11T11:58:21.974Z,16.23
2018-10-11T12:00:50.809Z,16.10
2018-10-11T12:03:19.643Z,16.97
2018-10-11T12:05:48.465Z,16.33
2018-10-11T12:08:17.292Z,16.40
2018-10-11T12:10:46.160Z,15.70
2018-10-11T12:13:14.998Z,16.10
2018-10-11T12:15:44.854Z,16.53
2018-10-11T12:18:13.680Z,15.03
2018-10-11T12:20:42.937Z,18.70
2018-10-11T12:23:12.662Z,17.07
2018-10-11T12:25:41.587Z,16.17
2018-10-11T12:28:10.333Z,16.47
2018-10-11T12:30:39.190Z,16.37
2018-10-11T12:33:08.022Z,15.67
2018-10-11T12:35:36.846Z,15.87
2018-10-11T12:38:05.941Z,15.37
2018-10-11T12:40:35.774Z,16.87
2018-10-11T12:43:04.631Z,16.77
2018-10-11T12:45:39.831Z,14.47
2018-10-11T12:48:08.662Z,15.77
2018-10-11T12:50:37.718Z,16.10
2018-10-11T12:53:07.759Z,16.73
2018-10-11T12:55:36.579Z,15.83
2018-10-11T12:58:06.365Z,14.90
2018-10-11T13:00:35.170Z,17.03
2018-10-11T13:03:04.064Z,15.40
2018-10-11T13:05:32.827Z,15.67
2018-10-11T13:08:01.671Z,14.83
2018-10-11T13:10:30.487Z,15.53
2018-10-11T13:13:00.148Z,14.47
2018-10-11T13:15:28.712Z,15.93
2018-10-11T13:17:57.499Z,15.20
2018-10-11T13:20:26.300Z,15.67
2018-10-11T13:22:55.331Z,15.37
2018-10-11T13:25:24.019Z,14.80
2018-10-11T13:27:52.830Z,16.00
2018-10-11T13:30:21.735Z,15.20
2018-10-11T13:32:50.577Z,15.13
2018-10-11T13:35:19.477Z,15.07
2018-10-11T13:37:48.708Z,14.10
2018-10-11T13:40:17.502Z,17.37
2018-10-11T13:42:46.332Z,15.03
2018-10-11T13:45:15.159Z,14.78
2018-10-11T13:47:45.459Z,13.90
2018-10-11T13:50:12.814Z,14.27
2018-10-11T13:52:41.630Z,15.27
2018-10-11T13:55:13.056Z,13.90
2018-10-11T13:57:39.800Z,14.70
2018-10-11T14:00:10.167Z,14.10
2018-10-11T14:02:39.000Z,14.40
2018-10-11T14:05:08.788Z,14.83
2018-10-11T14:07:37.609Z,14.80
2018-10-11T14:10:07.662Z,14.78
2018-10-11T14:12:36.488Z,14.63
2018-10-11T14:15:06.233Z,13.67
2018-10-11T14:17:35.050Z,12.80
2018-10-11T14:20:03.934Z,13.40
2018-10-11T14:22:33.241Z,14.83
2018-10-11T14:25:02.083Z,14.40
2018-10-11T14:27:30.908Z,14.07
2018-10-11T14:29:59.787Z,13.77
2018-10-11T14:32:28.669Z,13.57
2018-10-11T14:34:57.702Z,13.73
2018-10-11T14:37:26.557Z,13.30
2018-10-11T14:39:55.686Z,13.40
2018-10-11T14:42:24.493Z,13.20
2018-10-11T14:44:53.602Z,13.73
2018-10-11T14:47:22.455Z,13.13
2018-10-11T14:49:51.352Z,12.43
2018-10-11T14:52:20.175Z,12.97
2018-10-11T14:54:49.024Z,12.77
2018-10-11T14:57:18.366Z,12.87
2018-10-11T14:59:47.170Z,12.57
2018-10-11T15:02:16.011Z,12.10
2018-10-11T15:04:44.806Z,13.53
2018-10-11T15:07:14.152Z,13.40
2018-10-11T15:09:43.071Z,13.07
2018-10-11T15:12:11.816Z,12.63
2018-10-11T15:14:40.671Z,12.40
2018-10-11T15:17:09.541Z,12.47
2018-10-11T15:19:38.346Z,13.70
2018-10-11T15:22:07.161Z,14.17
2018-10-11T15:24:36.129Z,13.57
2018-10-11T15:27:05.007Z,15.00
2018-10-11T15:29:34.127Z,14.40
2018-10-11T15:32:02.975Z,13.87
2018-10-11T15:34:31.787Z,13.53
2018-10-11T15:37:00.651Z,14.67
2018-10-11T15:39:29.503Z,14.17
2018-10-11T15:41:58.340Z,13.97
2018-10-11T15:44:27.195Z,14.37
2018-10-11T15:46:56.097Z,13.37
2018-10-11T15:49:24.917Z,13.10
2018-10-11T15:51:54.043Z,15.60
2018-10-11T15:54:22.850Z,14.17
2018-10-11T15:56:51.680Z,14.70
2018-10-11T15:59:20.963Z,12.70
2018-10-11T16:01:49.781Z,15.00
2018-10-11T16:04:18.603Z,14.13
2018-10-11T16:06:47.419Z,14.03
2018-10-11T16:09:16.400Z,14.43
2018-10-11T16:11:45.179Z,14.97
2018-10-11T16:14:14.466Z,14.37
2018-10-11T16:16:43.312Z,14.23
2018-10-11T16:19:12.131Z,14.90
2018-10-11T16:21:40.963Z,15.83
2018-10-11T16:24:09.827Z,15.57
2018-10-11T16:26:38.647Z,16.63
2018-10-11T16:29:07.463Z,17.83
2018-10-11T16:31:36.307Z,17.90
2018-10-11T16:34:05.808Z,18.17
2018-10-11T16:36:35.139Z,16.70
2018-10-11T16:39:04.884Z,16.70
2018-10-11T16:41:33.707Z,17.43
2018-10-11T16:44:02.582Z,16.57
2018-10-11T16:46:31.702Z,16.20
2018-10-11T16:49:00.904Z,16.30
2018-10-11T16:51:29.839Z,16.20
2018-10-11T16:53:58.676Z,16.53
2018-10-11T16:56:27.487Z,16.33
2018-10-11T16:58:56.608Z,16.73
2018-10-11T17:01:25.791Z,16.77
2018-10-11T17:03:54.658Z,16.13
2018-10-11T17:06:23.475Z,16.70
2018-10-11T17:08:52.290Z,15.93
2018-10-11T17:11:21.114Z,15.60
2018-10-11T17:13:49.931Z,16.27
2018-10-11T17:16:18.754Z,16.07
2018-10-11T17:18:47.574Z,17.27
2018-10-11T17:21:16.882Z,17.70
2018-10-11T17:23:45.683Z,17.23
2018-10-11T17:26:14.491Z,18.40
2018-10-11T17:28:43.302Z,18.27
2018-10-11T17:31:12.139Z,18.97
2018-10-11T17:33:40.973Z,19.20
2018-10-11T17:36:09.782Z,18.73
2018-10-11T17:38:38.588Z,20.27
2018-10-11T17:41:07.460Z,18.87
2018-10-11T17:43:36.806Z,19.10
2018-10-11T17:46:05.622Z,18.93
2018-10-11T17:48:34.474Z,19.43
2018-10-11T17:51:03.306Z,18.17
2018-10-11T17:53:32.116Z,19.30
2018-10-11T17:56:00.924Z,17.57
2018-10-11T17:58:29.754Z,18.27
2018-10-11T18:00:58.613Z,19.00
2018-10-11T18:03:27.957Z,18.50
2018-10-11T18:05:57.114Z,18.03
2018-10-11T18:08:25.924Z,20.50
2018-10-11T18:10:54.739Z,19.67
2018-10-11T18:13:23.569Z,18.23
2018-10-11T18:15:52.374Z,17.60
2018-10-11T18:18:21.180Z,17.97
2018-10-11T18:20:50.004Z,18.53
2018-10-11T18:23:18.812Z,18.70
2018-10-11T18:25:47.688Z,18.80
2018-10-11T18:28:17.048Z,18.53
2018-10-11T18:30:45.858Z,17.97
2018-10-11T18:33:14.655Z,18.93
2018-10-11T18:35:43.559Z,19.70
2018-10-11T18:38:12.406Z,19.10
2018-10-11T18:40:41.220Z,18.20
2018-10-11T18:43:10.104Z,19.67
2018-10-11T18:45:38.930Z,17.93
2018-10-11T18:48:07.751Z,17.70
2018-10-11T18:50:37.063Z,17.87
2018-10-11T18:53:05.885Z,16.70
2018-10-11T18:55:34.695Z,18.00
2018-10-11T18:58:03.498Z,18.57
2018-10-11T19:00:32.368Z,17.97
2018-10-11T19:03:01.182Z,17.17
2018-10-11T19:05:30.586Z,18.67
2018-10-11T19:07:59.413Z,16.30
2018-10-11T19:10:28.216Z,17.73
2018-10-11T19:12:57.419Z,17.97
2018-10-11T19:15:26.239Z,17.07
2018-10-11T19:17:55.050Z,18.47
2018-10-11T19:20:23.913Z,18.67
2018-10-11T19:22:52.947Z,19.73
2018-10-11T19:25:21.763Z,20.40
2018-10-11T19:27:50.623Z,20.23
2018-10-11T19:30:19.426Z,19.47
2018-10-11T19:32:48.230Z,19.13
2018-10-11T19:35:17.606Z,18.20
2018-10-11T19:37:46.420Z,17.93
2018-10-11T19:40:15.263Z,18.83
2018-10-11T19:42:44.082Z,17.93
2018-10-11T19:45:12.895Z,17.10
2018-10-11T19:47:41.710Z,17.23
2018-10-11T19:50:10.576Z,17.90
2018-10-11T19:52:39.437Z,17.30
2018-10-11T19:55:08.316Z,18.10
2018-10-11T19:57:37.427Z,18.73
2018-10-11T20:00:08.009Z,18.73
2018-10-11T20:02:37.055Z,18.57
2018-10-11T20:05:06.174Z,16.77
2018-10-11T20:07:35.735Z,17.07
2018-10-11T20:10:04.567Z,17.53
2018-10-11T20:12:33.381Z,16.77
2018-10-11T20:15:02.540Z,17.17
2018-10-11T20:17:31.859Z,16.77
2018-10-11T20:20:00.668Z,17.83
2018-10-11T20:22:29.492Z,18.27
2018-10-11T20:24:59.186Z,17.43
2018-10-11T20:27:28.011Z,18.17
2018-10-11T20:29:56.818Z,18.40
2018-10-11T20:32:25.659Z,17.30
2018-10-11T20:34:54.774Z,17.30
2018-10-11T20:37:23.569Z,17.13
2018-10-11T20:39:52.390Z,16.43
2018-10-11T20:42:21.354Z,18.57
2018-10-11T20:44:50.240Z,17.50
2018-10-11T20:47:19.052Z,18.25
2018-10-11T20:49:47.854Z,17.73
2018-10-11T20:52:16.690Z,16.77
2018-10-11T20:54:45.552Z,15.47
2018-10-11T20:57:14.842Z,15.17
2018-10-11T20:59:43.627Z,16.70
2018-10-11T21:02:12.446Z,16.70
2018-10-11T21:04:41.271Z,17.07
2018-10-11T21:07:10.099Z,17.10
2018-10-11T21:09:39.491Z,17.20
2018-10-11T21:12:08.896Z,17.43
2018-10-11T21:14:37.691Z,16.07
2018-10-11T21:17:06.643Z,16.13
2018-10-11T21:19:35.803Z,16.50
2018-10-11T21:22:04.642Z,17.17
2018-10-11T21:24:33.457Z,17.97
2018-10-11T21:27:02.393Z,16.73
2018-10-11T21:29:31.265Z,16.57
2018-10-11T21:32:00.082Z,15.60
2018-10-11T21:34:28.972Z,16.03
2018-10-11T21:36:57.843Z,16.70
2018-10-11T21:39:26.662Z,16.60
2018-10-11T21:41:55.982Z,17.00
2018-10-11T21:44:27.622Z,17.03
2018-10-11T21:46:56.451Z,18.70
2018-10-11T21:49:25.301Z,15.90
2018-10-11T21:51:54.101Z,17.27
2018-10-11T21:54:22.902Z,16.87
2018-10-11T21:56:51.736Z,16.00
2018-10-11T21:59:20.558Z,15.37
2018-10-11T22:01:49.358Z,16.30
2018-10-11T22:04:18.488Z,15.83
2018-10-11T22:06:47.353Z,15.83
2018-10-11T22:09:16.177Z,16.70
2018-10-11T22:11:45.483Z,16.43
2018-10-11T22:14:14.314Z,15.43
2018-10-11T22:16:43.183Z,15.80
2018-10-11T22:19:12.008Z,15.07
2018-10-11T22:21:40.956Z,14.93
2018-10-11T22:24:09.812Z,14.53
2018-10-11T22:26:39.109Z,15.50
2018-10-11T22:29:07.981Z,16.67
2018-10-11T22:31:36.828Z,14.57
2018-10-11T22:34:05.734Z,16.73
2018-10-11T22:36:34.554Z,16.43
2018-10-11T22:39:03.480Z,14.20
2018-10-11T22:41:32.329Z,15.03
2018-10-11T22:44:01.146Z,15.10
2018-10-11T22:46:30.019Z,15.97
2018-10-11T22:48:59.307Z,14.93
2018-10-11T22:51:28.126Z,16.40
2018-10-11T22:53:56.995Z,15.40
2018-10-11T22:56:25.860Z,15.43
2018-10-11T22:58:54.673Z,15.87
2018-10-11T23:01:23.562Z,13.93
2018-10-11T23:03:52.518Z,15.03
2018-10-11T23:06:21.334Z,14.57
2018-10-11T23:08:50.129Z,15.10
2018-10-11T23:11:19.067Z,14.87
2018-10-11T23:13:48.539Z,14.93
2018-10-11T23:16:17.368Z,14.27
2018-10-11T23:18:46.243Z,13.70
2018-10-11T23:21:15.025Z,15.03
2018-10-11T23:23:44.410Z,15.23
2018-10-11T23:26:13.250Z,15.60
2018-10-11T23:28:42.070Z,14.63
2018-10-11T23:31:11.881Z,14.53
2018-10-11T23:33:41.610Z,14.93
2018-10-11T23:36:10.545Z,14.70
2018-10-11T23:38:39.579Z,13.27
2018-10-11T23:41:08.799Z,15.17
2018-10-11T23:43:37.878Z,14.93
2018-10-11T23:46:07.324Z,13.17
2018-10-11T23:48:36.152Z,15.17
2018-10-11T23:51:04.954Z,14.07
2018-10-11T23:53:33.800Z,14.27
2018-10-11T23:56:02.942Z,13.97
2018-10-11T23:58:32.200Z,14.53
